sensor_id;sensor_type;location;lat;lon;timestamp;P1;durP1;ratioP1;P2;durP2;ratioP2
84381;SDS011;74572;51.834;5.820;2024-03-17T00:01:49;11.35;;;4.68;;
84381;SDS011;74572;51.834;5.820;2024-03-17T00:04:15;9.75;;;4.90;;
84381;SDS011;74572;51.834;5.820;2024-03-17T00:06:40;9.77;;;4.95;;
84381;SDS011;74572;51.834;5.820;2024-03-17T00:09:06;9.48;;;4.47;;
84381;SDS011;74572;51.834;5.820;2024-03-17T00:11:34;11.63;;;5.00;;
84381;SDS011;74572;51.834;5.820;2024-03-17T00:14:00;9.68;;;4.72;;
84381;SDS011;74572;51.834;5.820;2024-03-17T00:16:28;8.88;;;3.83;;
84381;SDS011;74572;51.834;5.820;2024-03-17T00:18:54;6.78;;;3.92;;
84381;SDS011;74572;51.834;5.820;2024-03-17T00:21:20;7.15;;;4.22;;
84381;SDS011;74572;51.834;5.820;2024-03-17T00:23:49;9.38;;;4.05;;
84381;SDS011;74572;51.834;5.820;2024-03-17T00:26:14;9.25;;;4.53;;
84381;SDS011;74572;51.834;5.820;2024-03-17T00:28:40;7.88;;;4.05;;
84381;SDS011;74572;51.834;5.820;2024-03-17T00:31:06;9.65;;;4.50;;
84381;SDS011;74572;51.834;5.820;2024-03-17T00:33:34;7.55;;;4.68;;
84381;SDS011;74572;51.834;5.820;2024-03-17T00:36:00;8.23;;;4.43;;
84381;SDS011;74572;51.834;5.820;2024-03-17T00:38:26;8.85;;;4.75;;
84381;SDS011;74572;51.834;5.820;2024-03-17T00:40:51;10.20;;;4.25;;
84381;SDS011;74572;51.834;5.820;2024-03-17T00:43:16;12.37;;;5.03;;
84381;SDS011;74572;51.834;5.820;2024-03-17T00:45:42;11.00;;;4.37;;
84381;SDS011;74572;51.834;5.820;2024-03-17T00:48:07;10.00;;;4.47;;
84381;SDS011;74572;51.834;5.820;2024-03-17T00:50:33;7.88;;;4.60;;
84381;SDS011;74572;51.834;5.820;2024-03-17T00:52:58;9.57;;;3.58;;
84381;SDS011;74572;51.834;5.820;2024-03-17T00:55:24;10.10;;;4.07;;
84381;SDS011;74572;51.834;5.820;2024-03-17T00:57:50;10.80;;;4.38;;
84381;SDS011;74572;51.834;5.820;2024-03-17T01:00:16;8.23;;;4.05;;
84381;SDS011;74572;51.834;5.820;2024-03-17T01:02:42;9.48;;;4.20;;
84381;SDS011;74572;51.834;5.820;2024-03-17T01:05:08;6.57;;;3.30;;
84381;SDS011;74572;51.834;5.820;2024-03-17T01:07:33;8.23;;;4.20;;
84381;SDS011;74572;51.834;5.820;2024-03-17T01:09:59;9.90;;;4.18;;
84381;SDS011;74572;51.834;5.820;2024-03-17T01:12:25;6.68;;;3.67;;
84381;SDS011;74572;51.834;5.820;2024-03-17T01:14:51;9.90;;;3.15;;
84381;SDS011;74572;51.834;5.820;2024-03-17T01:17:16;7.95;;;3.55;;
84381;SDS011;74572;51.834;5.820;2024-03-17T01:19:44;8.82;;;4.03;;
84381;SDS011;74572;51.834;5.820;2024-03-17T01:22:09;8.65;;;3.97;;
84381;SDS011;74572;51.834;5.820;2024-03-17T01:24:38;8.05;;;3.47;;
84381;SDS011;74572;51.834;5.820;2024-03-17T01:27:07;8.48;;;4.05;;
84381;SDS011;74572;51.834;5.820;2024-03-17T01:29:39;6.53;;;3.20;;
84381;SDS011;74572;51.834;5.820;2024-03-17T01:32:04;7.32;;;3.55;;
84381;SDS011;74572;51.834;5.820;2024-03-17T01:34:31;6.28;;;3.25;;
84381;SDS011;74572;51.834;5.820;2024-03-17T01:36:56;8.20;;;3.40;;
84381;SDS011;74572;51.834;5.820;2024-03-17T01:39:22;7.95;;;3.88;;
84381;SDS011;74572;51.834;5.820;2024-03-17T01:41:47;6.72;;;3.05;;
84381;SDS011;74572;51.834;5.820;2024-03-17T01:44:23;11.32;;;3.88;;
84381;SDS011;74572;51.834;5.820;2024-03-17T01:46:51;7.97;;;2.67;;
84381;SDS011;74572;51.834;5.820;2024-03-17T01:49:17;6.03;;;3.10;;
84381;SDS011;74572;51.834;5.820;2024-03-17T01:51:44;5.32;;;3.08;;
84381;SDS011;74572;51.834;5.820;2024-03-17T01:54:10;5.72;;;2.90;;
84381;SDS011;74572;51.834;5.820;2024-03-17T01:56:36;12.25;;;3.70;;
84381;SDS011;74572;51.834;5.820;2024-03-17T01:59:02;6.03;;;3.17;;
84381;SDS011;74572;51.834;5.820;2024-03-17T02:01:30;8.05;;;3.53;;
84381;SDS011;74572;51.834;5.820;2024-03-17T02:03:56;7.03;;;3.70;;
84381;SDS011;74572;51.834;5.820;2024-03-17T02:06:21;7.95;;;3.63;;
84381;SDS011;74572;51.834;5.820;2024-03-17T02:08:52;5.53;;;2.72;;
84381;SDS011;74572;51.834;5.820;2024-03-17T02:11:29;7.95;;;3.00;;
84381;SDS011;74572;51.834;5.820;2024-03-17T02:13:58;6.50;;;3.25;;
84381;SDS011;74572;51.834;5.820;2024-03-17T02:16:25;9.45;;;4.03;;
84381;SDS011;74572;51.834;5.820;2024-03-17T02:18:54;4.57;;;2.60;;
84381;SDS011;74572;51.834;5.820;2024-03-17T02:21:23;7.20;;;3.63;;
84381;SDS011;74572;51.834;5.820;2024-03-17T02:23:50;9.27;;;3.47;;
84381;SDS011;74572;51.834;5.820;2024-03-17T02:26:16;6.43;;;3.88;;
84381;SDS011;74572;51.834;5.820;2024-03-17T02:28:43;6.50;;;3.50;;
84381;SDS011;74572;51.834;5.820;2024-03-17T02:31:10;8.45;;;3.25;;
84381;SDS011;74572;51.834;5.820;2024-03-17T02:33:36;6.15;;;3.65;;
84381;SDS011;74572;51.834;5.820;2024-03-17T02:36:03;8.77;;;4.03;;
84381;SDS011;74572;51.834;5.820;2024-03-17T02:38:32;7.05;;;4.07;;
84381;SDS011;74572;51.834;5.820;2024-03-17T02:41:16;10.73;;;4.28;;
84381;SDS011;74572;51.834;5.820;2024-03-17T02:43:42;6.30;;;3.72;;
84381;SDS011;74572;51.834;5.820;2024-03-17T02:46:10;5.07;;;3.25;;
84381;SDS011;74572;51.834;5.820;2024-03-17T02:48:37;7.93;;;3.95;;
84381;SDS011;74572;51.834;5.820;2024-03-17T02:51:09;9.30;;;3.70;;
84381;SDS011;74572;51.834;5.820;2024-03-17T02:53:36;9.57;;;4.60;;
84381;SDS011;74572;51.834;5.820;2024-03-17T02:56:01;7.55;;;4.70;;
84381;SDS011;74572;51.834;5.820;2024-03-17T02:58:27;7.53;;;4.10;;
84381;SDS011;74572;51.834;5.820;2024-03-17T03:00:52;5.85;;;3.50;;
84381;SDS011;74572;51.834;5.820;2024-03-17T03:03:21;8.43;;;3.80;;
84381;SDS011;74572;51.834;5.820;2024-03-17T03:05:46;8.23;;;3.35;;
84381;SDS011;74572;51.834;5.820;2024-03-17T03:08:14;8.35;;;3.88;;
84381;SDS011;74572;51.834;5.820;2024-03-17T03:10:43;9.60;;;3.67;;
84381;SDS011;74572;51.834;5.820;2024-03-17T03:13:09;5.85;;;2.92;;
84381;SDS011;74572;51.834;5.820;2024-03-17T03:15:35;6.85;;;4.10;;
84381;SDS011;74572;51.834;5.820;2024-03-17T03:18:00;8.38;;;3.63;;
84381;SDS011;74572;51.834;5.820;2024-03-17T03:20:26;6.43;;;4.43;;
84381;SDS011;74572;51.834;5.820;2024-03-17T03:22:55;8.50;;;4.18;;
84381;SDS011;74572;51.834;5.820;2024-03-17T03:25:21;5.78;;;3.03;;
84381;SDS011;74572;51.834;5.820;2024-03-17T03:27:47;7.40;;;4.28;;
84381;SDS011;74572;51.834;5.820;2024-03-17T03:30:12;11.23;;;4.68;;
84381;SDS011;74572;51.834;5.820;2024-03-17T03:32:40;11.75;;;4.15;;
84381;SDS011;74572;51.834;5.820;2024-03-17T03:35:07;9.57;;;4.45;;
84381;SDS011;74572;51.834;5.820;2024-03-17T03:37:33;7.70;;;4.38;;
84381;SDS011;74572;51.834;5.820;2024-03-17T03:39:58;8.75;;;4.55;;
84381;SDS011;74572;51.834;5.820;2024-03-17T03:42:24;7.90;;;3.88;;
84381;SDS011;74572;51.834;5.820;2024-03-17T03:44:50;8.60;;;3.85;;
84381;SDS011;74572;51.834;5.820;2024-03-17T03:47:15;6.47;;;3.90;;
84381;SDS011;74572;51.834;5.820;2024-03-17T03:49:41;8.60;;;4.47;;
84381;SDS011;74572;51.834;5.820;2024-03-17T03:52:06;9.63;;;4.57;;
84381;SDS011;74572;51.834;5.820;2024-03-17T03:54:33;6.65;;;4.20;;
84381;SDS011;74572;51.834;5.820;2024-03-17T03:56:59;8.00;;;3.92;;
84381;SDS011;74572;51.834;5.820;2024-03-17T03:59:24;8.77;;;5.00;;
84381;SDS011;74572;51.834;5.820;2024-03-17T04:01:50;9.10;;;5.60;;
84381;SDS011;74572;51.834;5.820;2024-03-17T04:04:15;9.25;;;4.60;;
84381;SDS011;74572;51.834;5.820;2024-03-17T04:06:41;7.32;;;3.40;;
84381;SDS011;74572;51.834;5.820;2024-03-17T04:09:07;8.52;;;4.35;;
84381;SDS011;74572;51.834;5.820;2024-03-17T04:11:34;11.65;;;4.47;;
84381;SDS011;74572;51.834;5.820;2024-03-17T04:13:59;8.38;;;5.03;;
84381;SDS011;74572;51.834;5.820;2024-03-17T04:16:26;13.48;;;5.22;;
84381;SDS011;74572;51.834;5.820;2024-03-17T04:18:52;7.45;;;4.28;;
84381;SDS011;74572;51.834;5.820;2024-03-17T04:21:17;9.90;;;4.80;;
84381;SDS011;74572;51.834;5.820;2024-03-17T04:23:43;10.75;;;4.63;;
84381;SDS011;74572;51.834;5.820;2024-03-17T04:26:08;9.00;;;3.90;;
84381;SDS011;74572;51.834;5.820;2024-03-17T04:28:34;6.97;;;4.35;;
84381;SDS011;74572;51.834;5.820;2024-03-17T04:31:05;8.15;;;4.13;;
84381;SDS011;74572;51.834;5.820;2024-03-17T04:33:31;10.57;;;4.93;;
84381;SDS011;74572;51.834;5.820;2024-03-17T04:35:59;7.03;;;4.28;;
84381;SDS011;74572;51.834;5.820;2024-03-17T04:38:27;7.80;;;4.28;;
84381;SDS011;74572;51.834;5.820;2024-03-17T04:40:53;6.30;;;4.05;;
84381;SDS011;74572;51.834;5.820;2024-03-17T04:43:29;9.38;;;3.90;;
84381;SDS011;74572;51.834;5.820;2024-03-17T04:46:01;6.55;;;3.72;;
84381;SDS011;74572;51.834;5.820;2024-03-17T04:48:29;8.75;;;4.10;;
84381;SDS011;74572;51.834;5.820;2024-03-17T04:50:55;10.55;;;3.65;;
84381;SDS011;74572;51.834;5.820;2024-03-17T04:53:20;6.07;;;3.35;;
84381;SDS011;74572;51.834;5.820;2024-03-17T04:55:46;7.95;;;4.05;;
84381;SDS011;74572;51.834;5.820;2024-03-17T04:58:11;7.88;;;3.92;;
84381;SDS011;74572;51.834;5.820;2024-03-17T05:00:36;7.97;;;3.70;;
84381;SDS011;74572;51.834;5.820;2024-03-17T05:03:02;8.63;;;4.40;;
84381;SDS011;74572;51.834;5.820;2024-03-17T05:05:28;9.10;;;4.10;;
84381;SDS011;74572;51.834;5.820;2024-03-17T05:07:54;8.52;;;3.70;;
84381;SDS011;74572;51.834;5.820;2024-03-17T05:10:20;9.50;;;4.93;;
84381;SDS011;74572;51.834;5.820;2024-03-17T05:12:45;10.70;;;4.75;;
84381;SDS011;74572;51.834;5.820;2024-03-17T05:15:11;4.13;;;2.53;;
84381;SDS011;74572;51.834;5.820;2024-03-17T05:17:36;8.57;;;3.80;;
84381;SDS011;74572;51.834;5.820;2024-03-17T05:20:02;7.85;;;3.70;;
84381;SDS011;74572;51.834;5.820;2024-03-17T05:22:28;8.43;;;4.35;;
84381;SDS011;74572;51.834;5.820;2024-03-17T05:24:53;8.88;;;4.78;;
84381;SDS011;74572;51.834;5.820;2024-03-17T05:27:19;6.25;;;3.30;;
84381;SDS011;74572;51.834;5.820;2024-03-17T05:29:44;6.93;;;3.30;;
84381;SDS011;74572;51.834;5.820;2024-03-17T05:32:10;8.30;;;4.07;;
84381;SDS011;74572;51.834;5.820;2024-03-17T05:34:35;6.95;;;3.58;;
84381;SDS011;74572;51.834;5.820;2024-03-17T05:37:00;6.00;;;3.20;;
84381;SDS011;74572;51.834;5.820;2024-03-17T05:39:27;7.97;;;4.35;;
84381;SDS011;74572;51.834;5.820;2024-03-17T05:41:52;9.10;;;5.18;;
84381;SDS011;74572;51.834;5.820;2024-03-17T05:44:18;6.25;;;3.42;;
84381;SDS011;74572;51.834;5.820;2024-03-17T05:46:43;7.22;;;3.95;;
84381;SDS011;74572;51.834;5.820;2024-03-17T05:49:09;6.55;;;3.30;;
84381;SDS011;74572;51.834;5.820;2024-03-17T05:51:35;9.35;;;4.07;;
84381;SDS011;74572;51.834;5.820;2024-03-17T05:54:01;7.55;;;3.72;;
84381;SDS011;74572;51.834;5.820;2024-03-17T05:56:27;6.85;;;3.60;;
84381;SDS011;74572;51.834;5.820;2024-03-17T05:58:53;7.15;;;4.20;;
84381;SDS011;74572;51.834;5.820;2024-03-17T06:01:18;8.95;;;4.53;;
84381;SDS011;74572;51.834;5.820;2024-03-17T06:03:44;8.55;;;3.72;;
84381;SDS011;74572;51.834;5.820;2024-03-17T06:06:10;7.68;;;3.58;;
84381;SDS011;74572;51.834;5.820;2024-03-17T06:08:36;8.07;;;4.15;;
84381;SDS011;74572;51.834;5.820;2024-03-17T06:11:02;7.20;;;4.28;;
84381;SDS011;74572;51.834;5.820;2024-03-17T06:13:29;6.68;;;3.55;;
84381;SDS011;74572;51.834;5.820;2024-03-17T06:15:54;6.03;;;3.65;;
84381;SDS011;74572;51.834;5.820;2024-03-17T06:18:25;7.72;;;4.10;;
84381;SDS011;74572;51.834;5.820;2024-03-17T06:20:52;9.27;;;3.72;;
84381;SDS011;74572;51.834;5.820;2024-03-17T06:23:17;6.60;;;4.20;;
84381;SDS011;74572;51.834;5.820;2024-03-17T06:28:11;6.40;;;3.67;;
84381;SDS011;74572;51.834;5.820;2024-03-17T06:30:40;7.47;;;3.92;;
84381;SDS011;74572;51.834;5.820;2024-03-17T06:33:06;6.70;;;3.85;;
84381;SDS011;74572;51.834;5.820;2024-03-17T06:35:31;5.90;;;3.42;;
84381;SDS011;74572;51.834;5.820;2024-03-17T06:38:00;6.60;;;3.95;;
84381;SDS011;74572;51.834;5.820;2024-03-17T06:40:26;8.60;;;4.10;;
84381;SDS011;74572;51.834;5.820;2024-03-17T06:42:51;6.53;;;3.28;;
84381;SDS011;74572;51.834;5.820;2024-03-17T06:45:18;5.75;;;4.03;;
84381;SDS011;74572;51.834;5.820;2024-03-17T06:47:45;3.88;;;2.83;;
84381;SDS011;74572;51.834;5.820;2024-03-17T06:50:11;5.50;;;3.38;;
84381;SDS011;74572;51.834;5.820;2024-03-17T06:52:37;6.28;;;2.47;;
84381;SDS011;74572;51.834;5.820;2024-03-17T06:55:03;7.35;;;3.85;;
84381;SDS011;74572;51.834;5.820;2024-03-17T06:57:30;4.88;;;3.13;;
84381;SDS011;74572;51.834;5.820;2024-03-17T06:59:55;5.00;;;3.55;;
84381;SDS011;74572;51.834;5.820;2024-03-17T07:02:20;6.53;;;3.90;;
84381;SDS011;74572;51.834;5.820;2024-03-17T07:04:46;8.70;;;3.72;;
84381;SDS011;74572;51.834;5.820;2024-03-17T07:07:14;6.53;;;3.00;;
84381;SDS011;74572;51.834;5.820;2024-03-17T07:09:40;4.75;;;3.15;;
84381;SDS011;74572;51.834;5.820;2024-03-17T07:12:09;5.68;;;3.08;;
84381;SDS011;74572;51.834;5.820;2024-03-17T07:14:36;5.70;;;3.67;;
84381;SDS011;74572;51.834;5.820;2024-03-17T07:17:02;6.05;;;3.08;;
84381;SDS011;74572;51.834;5.820;2024-03-17T07:19:28;5.15;;;3.00;;
84381;SDS011;74572;51.834;5.820;2024-03-17T07:21:57;6.78;;;3.42;;
84381;SDS011;74572;51.834;5.820;2024-03-17T07:24:23;5.07;;;3.22;;
84381;SDS011;74572;51.834;5.820;2024-03-17T07:26:48;5.00;;;3.08;;
84381;SDS011;74572;51.834;5.820;2024-03-17T07:29:14;6.93;;;3.20;;
84381;SDS011;74572;51.834;5.820;2024-03-17T07:31:40;5.18;;;3.17;;
84381;SDS011;74572;51.834;5.820;2024-03-17T07:34:06;6.87;;;3.47;;
84381;SDS011;74572;51.834;5.820;2024-03-17T07:36:31;5.60;;;3.58;;
84381;SDS011;74572;51.834;5.820;2024-03-17T07:38:57;5.10;;;3.08;;
84381;SDS011;74572;51.834;5.820;2024-03-17T07:41:25;8.05;;;3.75;;
84381;SDS011;74572;51.834;5.820;2024-03-17T07:43:51;11.02;;;4.00;;
84381;SDS011;74572;51.834;5.820;2024-03-17T07:46:17;5.80;;;3.90;;
84381;SDS011;74572;51.834;5.820;2024-03-17T07:48:43;7.40;;;4.25;;
84381;SDS011;74572;51.834;5.820;2024-03-17T07:51:10;6.28;;;3.78;;
84381;SDS011;74572;51.834;5.820;2024-03-17T07:53:38;6.80;;;4.03;;
84381;SDS011;74572;51.834;5.820;2024-03-17T07:56:05;6.78;;;3.92;;
84381;SDS011;74572;51.834;5.820;2024-03-17T07:58:34;6.18;;;3.70;;
84381;SDS011;74572;51.834;5.820;2024-03-17T08:01:04;5.03;;;3.90;;
84381;SDS011;74572;51.834;5.820;2024-03-17T08:03:41;5.30;;;3.30;;
84381;SDS011;74572;51.834;5.820;2024-03-17T08:06:09;5.47;;;3.40;;
84381;SDS011;74572;51.834;5.820;2024-03-17T08:08:38;6.38;;;3.67;;
84381;SDS011;74572;51.834;5.820;2024-03-17T08:11:04;6.00;;;3.70;;
84381;SDS011;74572;51.834;5.820;2024-03-17T08:13:30;5.85;;;4.00;;
84381;SDS011;74572;51.834;5.820;2024-03-17T08:16:04;5.85;;;4.28;;
84381;SDS011;74572;51.834;5.820;2024-03-17T08:18:31;4.63;;;3.53;;
84381;SDS011;74572;51.834;5.820;2024-03-17T08:21:02;6.60;;;3.55;;
84381;SDS011;74572;51.834;5.820;2024-03-17T08:23:31;4.07;;;3.33;;
84381;SDS011;74572;51.834;5.820;2024-03-17T08:25:59;6.38;;;3.20;;
84381;SDS011;74572;51.834;5.820;2024-03-17T08:28:25;5.20;;;3.38;;
84381;SDS011;74572;51.834;5.820;2024-03-17T08:30:55;4.55;;;3.33;;
84381;SDS011;74572;51.834;5.820;2024-03-17T08:33:28;4.43;;;2.72;;
84381;SDS011;74572;51.834;5.820;2024-03-17T08:35:56;3.80;;;2.95;;
84381;SDS011;74572;51.834;5.820;2024-03-17T08:38:22;5.20;;;3.10;;
84381;SDS011;74572;51.834;5.820;2024-03-17T08:40:49;3.58;;;2.60;;
84381;SDS011;74572;51.834;5.820;2024-03-17T08:43:17;4.20;;;2.63;;
84381;SDS011;74572;51.834;5.820;2024-03-17T08:45:44;6.50;;;3.08;;
84381;SDS011;74572;51.834;5.820;2024-03-17T08:48:10;3.97;;;2.50;;
84381;SDS011;74572;51.834;5.820;2024-03-17T08:50:35;4.40;;;2.50;;
84381;SDS011;74572;51.834;5.820;2024-03-17T08:53:01;5.43;;;2.58;;
84381;SDS011;74572;51.834;5.820;2024-03-17T08:55:27;4.38;;;2.55;;
84381;SDS011;74572;51.834;5.820;2024-03-17T08:57:52;6.53;;;2.75;;
84381;SDS011;74572;51.834;5.820;2024-03-17T09:00:18;3.53;;;2.42;;
84381;SDS011;74572;51.834;5.820;2024-03-17T09:02:43;4.60;;;2.53;;
84381;SDS011;74572;51.834;5.820;2024-03-17T09:05:09;5.63;;;2.58;;
84381;SDS011;74572;51.834;5.820;2024-03-17T09:07:35;5.00;;;2.72;;
84381;SDS011;74572;51.834;5.820;2024-03-17T09:10:00;7.25;;;2.72;;
84381;SDS011;74572;51.834;5.820;2024-03-17T09:12:26;3.95;;;2.47;;
84381;SDS011;74572;51.834;5.820;2024-03-17T09:14:52;6.78;;;3.00;;
84381;SDS011;74572;51.834;5.820;2024-03-17T09:17:18;5.45;;;2.72;;
84381;SDS011;74572;51.834;5.820;2024-03-17T09:19:45;5.13;;;2.88;;
84381;SDS011;74572;51.834;5.820;2024-03-17T09:22:12;3.75;;;2.47;;
84381;SDS011;74572;51.834;5.820;2024-03-17T09:24:38;4.38;;;2.72;;
84381;SDS011;74572;51.834;5.820;2024-03-17T09:27:04;5.68;;;3.03;;
84381;SDS011;74572;51.834;5.820;2024-03-17T09:29:30;4.53;;;2.58;;
84381;SDS011;74572;51.834;5.820;2024-03-17T09:31:56;5.97;;;2.80;;
84381;SDS011;74572;51.834;5.820;2024-03-17T09:34:21;4.22;;;2.47;;
84381;SDS011;74572;51.834;5.820;2024-03-17T09:36:47;4.78;;;2.58;;
84381;SDS011;74572;51.834;5.820;2024-03-17T09:39:12;5.50;;;2.85;;
84381;SDS011;74572;51.834;5.820;2024-03-17T09:41:39;5.32;;;2.88;;
84381;SDS011;74572;51.834;5.820;2024-03-17T09:44:05;6.00;;;3.28;;
84381;SDS011;74572;51.834;5.820;2024-03-17T09:46:35;4.75;;;2.97;;
84381;SDS011;74572;51.834;5.820;2024-03-17T09:49:01;5.03;;;2.95;;
84381;SDS011;74572;51.834;5.820;2024-03-17T09:51:26;5.68;;;2.92;;
84381;SDS011;74572;51.834;5.820;2024-03-17T09:53:52;4.53;;;3.47;;
84381;SDS011;74572;51.834;5.820;2024-03-17T09:56:19;6.10;;;2.92;;
84381;SDS011;74572;51.834;5.820;2024-03-17T09:58:49;6.65;;;3.30;;
84381;SDS011;74572;51.834;5.820;2024-03-17T10:01:16;4.28;;;2.92;;
84381;SDS011;74572;51.834;5.820;2024-03-17T10:03:44;5.38;;;2.65;;
84381;SDS011;74572;51.834;5.820;2024-03-17T10:06:14;4.45;;;3.00;;
84381;SDS011;74572;51.834;5.820;2024-03-17T10:11:15;7.43;;;3.42;;
84381;SDS011;74572;51.834;5.820;2024-03-17T10:13:45;5.20;;;3.10;;
84381;SDS011;74572;51.834;5.820;2024-03-17T10:16:26;5.65;;;3.10;;
84381;SDS011;74572;51.834;5.820;2024-03-17T10:19:11;5.25;;;3.10;;
84381;SDS011;74572;51.834;5.820;2024-03-17T10:24:19;4.03;;;2.90;;
84381;SDS011;74572;51.834;5.820;2024-03-17T10:26:58;4.07;;;2.47;;
84381;SDS011;74572;51.834;5.820;2024-03-17T10:29:28;3.67;;;2.50;;
84381;SDS011;74572;51.834;5.820;2024-03-17T10:31:56;5.78;;;3.47;;
84381;SDS011;74572;51.834;5.820;2024-03-17T10:34:23;4.38;;;2.80;;
84381;SDS011;74572;51.834;5.820;2024-03-17T10:39:49;6.75;;;3.60;;
84381;SDS011;74572;51.834;5.820;2024-03-17T10:42:20;5.70;;;3.00;;
84381;SDS011;74572;51.834;5.820;2024-03-17T10:44:49;5.25;;;2.75;;
84381;SDS011;74572;51.834;5.820;2024-03-17T10:47:24;9.25;;;3.30;;
84381;SDS011;74572;51.834;5.820;2024-03-17T10:49:54;3.55;;;2.50;;
84381;SDS011;74572;51.834;5.820;2024-03-17T10:52:21;4.40;;;3.05;;
84381;SDS011;74572;51.834;5.820;2024-03-17T10:54:54;3.55;;;2.75;;
84381;SDS011;74572;51.834;5.820;2024-03-17T11:00:02;4.57;;;3.58;;
84381;SDS011;74572;51.834;5.820;2024-03-17T11:02:30;5.20;;;3.22;;
84381;SDS011;74572;51.834;5.820;2024-03-17T11:07:49;4.57;;;3.28;;
84381;SDS011;74572;51.834;5.820;2024-03-17T11:10:18;4.75;;;2.92;;
84381;SDS011;74572;51.834;5.820;2024-03-17T11:12:50;6.50;;;3.47;;
84381;SDS011;74572;51.834;5.820;2024-03-17T11:17:55;6.35;;;3.20;;
84381;SDS011;74572;51.834;5.820;2024-03-17T11:20:55;5.43;;;3.38;;
84381;SDS011;74572;51.834;5.820;2024-03-17T11:25:58;5.85;;;3.13;;
84381;SDS011;74572;51.834;5.820;2024-03-17T11:31:31;4.53;;;3.30;;
84381;SDS011;74572;51.834;5.820;2024-03-17T11:33:57;5.35;;;3.28;;
84381;SDS011;74572;51.834;5.820;2024-03-17T11:36:37;6.53;;;3.22;;
84381;SDS011;74572;51.834;5.820;2024-03-17T11:39:10;5.22;;;3.33;;
84381;SDS011;74572;51.834;5.820;2024-03-17T11:41:52;5.60;;;3.20;;
84381;SDS011;74572;51.834;5.820;2024-03-17T11:49:22;4.65;;;3.08;;
84381;SDS011;74572;51.834;5.820;2024-03-17T11:51:49;5.28;;;3.15;;
84381;SDS011;74572;51.834;5.820;2024-03-17T11:54:17;7.68;;;3.60;;
84381;SDS011;74572;51.834;5.820;2024-03-17T11:56:44;4.28;;;3.20;;
84381;SDS011;74572;51.834;5.820;2024-03-17T11:59:13;3.95;;;2.75;;
84381;SDS011;74572;51.834;5.820;2024-03-17T12:01:39;4.53;;;3.10;;
84381;SDS011;74572;51.834;5.820;2024-03-17T12:04:05;7.88;;;3.30;;
84381;SDS011;74572;51.834;5.820;2024-03-17T12:06:32;5.05;;;3.22;;
84381;SDS011;74572;51.834;5.820;2024-03-17T12:09:07;5.00;;;2.42;;
84381;SDS011;74572;51.834;5.820;2024-03-17T12:11:36;4.28;;;3.15;;
84381;SDS011;74572;51.834;5.820;2024-03-17T12:14:11;5.93;;;3.25;;
84381;SDS011;74572;51.834;5.820;2024-03-17T12:16:46;6.95;;;3.60;;
84381;SDS011;74572;51.834;5.820;2024-03-17T12:19:13;6.50;;;3.25;;
84381;SDS011;74572;51.834;5.820;2024-03-17T12:21:42;5.60;;;3.15;;
84381;SDS011;74572;51.834;5.820;2024-03-17T12:24:13;3.90;;;2.92;;
84381;SDS011;74572;51.834;5.820;2024-03-17T12:26:41;5.68;;;3.53;;
84381;SDS011;74572;51.834;5.820;2024-03-17T12:29:27;5.20;;;3.35;;
84381;SDS011;74572;51.834;5.820;2024-03-17T12:31:55;5.82;;;3.10;;
84381;SDS011;74572;51.834;5.820;2024-03-17T12:34:22;4.47;;;2.90;;
84381;SDS011;74572;51.834;5.820;2024-03-17T12:36:49;7.45;;;3.83;;
84381;SDS011;74572;51.834;5.820;2024-03-17T12:39:22;7.10;;;3.60;;
84381;SDS011;74572;51.834;5.820;2024-03-17T12:44:56;9.07;;;3.40;;
84381;SDS011;74572;51.834;5.820;2024-03-17T12:47:23;6.50;;;4.00;;
84381;SDS011;74572;51.834;5.820;2024-03-17T12:52:19;6.95;;;3.58;;
84381;SDS011;74572;51.834;5.820;2024-03-17T12:57:47;5.57;;;3.80;;
84381;SDS011;74572;51.834;5.820;2024-03-17T13:00:32;5.40;;;3.47;;
84381;SDS011;74572;51.834;5.820;2024-03-17T13:05:28;4.10;;;3.30;;
84381;SDS011;74572;51.834;5.820;2024-03-17T13:07:54;6.43;;;3.05;;
84381;SDS011;74572;51.834;5.820;2024-03-17T13:10:21;6.00;;;3.20;;
84381;SDS011;74572;51.834;5.820;2024-03-17T13:12:48;4.55;;;3.17;;
84381;SDS011;74572;51.834;5.820;2024-03-17T13:15:22;6.82;;;3.08;;
84381;SDS011;74572;51.834;5.820;2024-03-17T13:17:48;5.05;;;2.72;;
84381;SDS011;74572;51.834;5.820;2024-03-17T13:20:14;4.10;;;2.95;;
84381;SDS011;74572;51.834;5.820;2024-03-17T13:22:41;5.93;;;3.28;;
84381;SDS011;74572;51.834;5.820;2024-03-17T13:25:09;6.43;;;3.53;;
84381;SDS011;74572;51.834;5.820;2024-03-17T13:27:40;5.25;;;3.03;;
84381;SDS011;74572;51.834;5.820;2024-03-17T13:30:06;4.80;;;3.17;;
84381;SDS011;74572;51.834;5.820;2024-03-17T13:32:34;7.10;;;3.88;;
84381;SDS011;74572;51.834;5.820;2024-03-17T13:35:00;4.65;;;3.55;;
84381;SDS011;74572;51.834;5.820;2024-03-17T13:37:26;5.07;;;2.95;;
84381;SDS011;74572;51.834;5.820;2024-03-17T13:39:52;6.03;;;3.75;;
84381;SDS011;74572;51.834;5.820;2024-03-17T13:42:17;5.30;;;2.90;;
84381;SDS011;74572;51.834;5.820;2024-03-17T13:44:43;4.95;;;3.60;;
84381;SDS011;74572;51.834;5.820;2024-03-17T13:47:09;5.60;;;3.10;;
84381;SDS011;74572;51.834;5.820;2024-03-17T13:49:39;8.75;;;3.95;;
84381;SDS011;74572;51.834;5.820;2024-03-17T13:52:05;4.72;;;3.10;;
84381;SDS011;74572;51.834;5.820;2024-03-17T13:54:30;6.47;;;3.50;;
84381;SDS011;74572;51.834;5.820;2024-03-17T13:56:57;6.82;;;3.13;;
84381;SDS011;74572;51.834;5.820;2024-03-17T13:59:23;4.55;;;2.92;;
84381;SDS011;74572;51.834;5.820;2024-03-17T14:01:52;5.70;;;3.33;;
84381;SDS011;74572;51.834;5.820;2024-03-17T14:04:17;5.10;;;3.08;;
84381;SDS011;74572;51.834;5.820;2024-03-17T14:06:44;5.47;;;3.03;;
84381;SDS011;74572;51.834;5.820;2024-03-17T14:09:10;6.82;;;2.90;;
84381;SDS011;74572;51.834;5.820;2024-03-17T14:11:45;5.22;;;3.40;;
84381;SDS011;74572;51.834;5.820;2024-03-17T14:14:11;4.75;;;2.60;;
84381;SDS011;74572;51.834;5.820;2024-03-17T14:16:37;4.25;;;2.95;;
84381;SDS011;74572;51.834;5.820;2024-03-17T14:19:04;5.60;;;4.03;;
84381;SDS011;74572;51.834;5.820;2024-03-17T14:21:29;5.38;;;3.38;;
84381;SDS011;74572;51.834;5.820;2024-03-17T14:23:55;6.22;;;3.15;;
84381;SDS011;74572;51.834;5.820;2024-03-17T14:26:21;5.05;;;2.92;;
84381;SDS011;74572;51.834;5.820;2024-03-17T14:28:47;4.68;;;2.80;;
84381;SDS011;74572;51.834;5.820;2024-03-17T14:31:15;4.60;;;3.45;;
84381;SDS011;74572;51.834;5.820;2024-03-17T14:33:42;3.83;;;3.08;;
84381;SDS011;74572;51.834;5.820;2024-03-17T14:36:08;7.70;;;3.70;;
84381;SDS011;74572;51.834;5.820;2024-03-17T14:38:34;5.10;;;3.30;;
84381;SDS011;74572;51.834;5.820;2024-03-17T14:41:00;5.45;;;3.45;;
84381;SDS011;74572;51.834;5.820;2024-03-17T14:43:25;5.32;;;3.63;;
84381;SDS011;74572;51.834;5.820;2024-03-17T14:45:51;5.07;;;3.05;;
84381;SDS011;74572;51.834;5.820;2024-03-17T14:48:16;6.63;;;3.65;;
84381;SDS011;74572;51.834;5.820;2024-03-17T14:50:42;5.50;;;2.88;;
84381;SDS011;74572;51.834;5.820;2024-03-17T14:53:07;6.07;;;3.53;;
84381;SDS011;74572;51.834;5.820;2024-03-17T14:55:32;6.22;;;3.30;;
84381;SDS011;74572;51.834;5.820;2024-03-17T14:57:59;4.63;;;2.95;;
84381;SDS011;74572;51.834;5.820;2024-03-17T15:00:28;5.43;;;3.22;;
84381;SDS011;74572;51.834;5.820;2024-03-17T15:02:55;5.95;;;3.10;;
84381;SDS011;74572;51.834;5.820;2024-03-17T15:05:21;5.30;;;3.35;;
84381;SDS011;74572;51.834;5.820;2024-03-17T15:07:48;4.93;;;3.33;;
84381;SDS011;74572;51.834;5.820;2024-03-17T15:10:14;5.93;;;3.00;;
84381;SDS011;74572;51.834;5.820;2024-03-17T15:12:41;4.68;;;3.15;;
84381;SDS011;74572;51.834;5.820;2024-03-17T15:15:07;5.60;;;3.15;;
84381;SDS011;74572;51.834;5.820;2024-03-17T15:17:34;5.50;;;3.05;;
84381;SDS011;74572;51.834;5.820;2024-03-17T15:20:00;4.63;;;3.38;;
84381;SDS011;74572;51.834;5.820;2024-03-17T15:22:25;7.55;;;3.33;;
84381;SDS011;74572;51.834;5.820;2024-03-17T15:24:51;4.75;;;3.13;;
84381;SDS011;74572;51.834;5.820;2024-03-17T15:27:18;6.78;;;3.88;;
84381;SDS011;74572;51.834;5.820;2024-03-17T15:29:43;4.03;;;2.63;;